createdAt,value
2023-01-04T00:01:05.683Z,17.15
2023-01-04T00:03:33.536Z,19.50
2023-01-04T00:06:03.886Z,19.77
2023-01-04T00:08:30.956Z,21.05
2023-01-04T00:11:14.068Z,18.83
2023-01-04T00:13:41.523Z,16.92
2023-01-04T00:16:12.332Z,19.75
2023-01-04T00:18:39.724Z,18.25
2023-01-04T00:21:12.550Z,17.77
2023-01-04T00:23:40.745Z,17.42
2023-01-04T00:26:09.850Z,18.17
2023-01-04T00:28:37.542Z,16.95
2023-01-04T00:31:06.367Z,15.43
2023-01-04T00:33:34.814Z,16.00
2023-01-04T00:36:07.306Z,15.98
2023-01-04T00:38:35.525Z,16.08
2023-01-04T00:41:03.631Z,16.13
2023-01-04T00:43:30.814Z,16.65
2023-01-04T00:45:58.093Z,18.55
2023-01-04T00:48:25.709Z,16.13
2023-01-04T00:50:52.785Z,17.38
2023-01-04T00:53:19.752Z,17.10
2023-01-04T00:55:46.999Z,15.77
2023-01-04T00:58:13.977Z,15.32
2023-01-04T01:00:41.207Z,17.15
2023-01-04T01:03:08.594Z,18.85
2023-01-04T01:05:36.207Z,17.58
2023-01-04T01:08:23.778Z,16.52
2023-01-04T01:10:52.087Z,17.83
2023-01-04T01:13:20.123Z,16.15
2023-01-04T01:15:47.209Z,17.85
2023-01-04T01:18:14.509Z,17.98
2023-01-04T01:20:44.019Z,16.65
2023-01-04T01:23:13.813Z,18.77
2023-01-04T01:25:41.987Z,17.33
2023-01-04T01:28:09.976Z,15.15
2023-01-04T01:30:41.927Z,17.23
2023-01-04T01:33:10.339Z,19.25
2023-01-04T01:35:37.907Z,18.75
2023-01-04T01:38:04.973Z,15.95
2023-01-04T01:40:32.044Z,18.05
2023-01-04T01:42:59.111Z,18.48
2023-01-04T01:45:32.446Z,17.27
2023-01-04T01:48:06.692Z,20.08
2023-01-04T01:50:39.191Z,17.08
2023-01-04T01:53:09.078Z,19.50
2023-01-04T01:55:37.160Z,19.80
2023-01-04T01:58:07.554Z,18.73
2023-01-04T02:00:35.201Z,18.30
2023-01-04T02:03:21.951Z,17.92
2023-01-04T02:05:53.833Z,19.65
2023-01-04T02:08:23.749Z,19.75
2023-01-04T02:10:51.022Z,20.52
2023-01-04T02:13:25.198Z,20.30
2023-01-04T02:16:20.461Z,19.98
2023-01-04T02:19:05.189Z,19.75
2023-01-04T02:21:55.297Z,19.38
2023-01-04T02:24:41.741Z,17.60
2023-01-04T02:27:38.518Z,19.52
2023-01-04T02:30:08.547Z,17.98
2023-01-04T02:32:38.297Z,22.30
2023-01-04T02:35:14.259Z,20.08
2023-01-04T02:38:16.493Z,20.30
2023-01-04T02:40:52.643Z,21.33
2023-01-04T02:43:53.457Z,20.17
2023-01-04T02:46:32.549Z,21.05
2023-01-04T02:49:19.409Z,23.38
2023-01-04T02:51:46.325Z,20.38
2023-01-04T02:54:17.337Z,22.88
2023-01-04T02:56:58.404Z,24.33
2023-01-04T02:59:34.168Z,22.80
2023-01-04T03:02:57.342Z,21.60
2023-01-04T03:05:52.232Z,22.60
2023-01-04T03:08:37.597Z,20.45
2023-01-04T03:11:30.669Z,24.17
2023-01-04T03:14:33.046Z,23.38
2023-01-04T03:16:53.357Z,26.15
2023-01-04T03:19:42.546Z,22.80
2023-01-04T03:22:33.764Z,23.08
2023-01-04T03:25:21.946Z,22.60
2023-01-04T03:28:11.559Z,21.52
2023-01-04T03:31:06.261Z,24.38
2023-01-04T03:33:52.366Z,23.98
2023-01-04T03:36:47.211Z,21.40
2023-01-04T03:39:57.840Z,21.55
2023-01-04T03:42:58.926Z,23.75
2023-01-04T03:45:56.696Z,25.10
2023-01-04T03:48:46.363Z,24.10
2023-01-04T03:51:15.960Z,22.67
2023-01-04T03:53:49.421Z,25.65
2023-01-04T03:56:18.796Z,22.98
2023-01-04T03:58:46.088Z,23.33
2023-01-04T04:01:13.655Z,23.65
2023-01-04T04:03:59.138Z,22.48
2023-01-04T04:06:44.662Z,23.77
2023-01-04T04:09:11.597Z,22.58
2023-01-04T04:11:39.612Z,22.92
2023-01-04T04:14:06.665Z,22.20
2023-01-04T04:16:33.994Z,24.73
2023-01-04T04:19:08.006Z,23.23
2023-01-04T04:21:35.810Z,21.35
2023-01-04T04:24:02.897Z,19.85
2023-01-04T04:26:29.986Z,22.92
2023-01-04T04:28:57.202Z,25.02
2023-01-04T04:31:24.635Z,24.55
2023-01-04T04:33:51.592Z,24.77
2023-01-04T04:36:18.610Z,22.20
2023-01-04T04:38:45.494Z,22.08
2023-01-04T04:41:32.333Z,23.23
2023-01-04T04:43:59.813Z,25.80
2023-01-04T04:46:27.149Z,24.10
2023-01-04T04:48:54.120Z,21.17
2023-01-04T04:51:21.195Z,24.25
2023-01-04T04:53:49.841Z,22.83
2023-01-04T04:56:16.978Z,25.50
2023-01-04T04:58:43.954Z,24.70
2023-01-04T05:01:10.969Z,22.35
2023-01-04T05:03:38.420Z,22.95
2023-01-04T05:06:05.491Z,27.73
2023-01-04T05:08:32.616Z,22.98
2023-01-04T05:10:59.731Z,25.92
2023-01-04T05:13:31.318Z,25.77
2023-01-04T05:15:58.685Z,26.33
2023-01-04T05:18:25.640Z,25.63
2023-01-04T05:20:53.010Z,27.92
2023-01-04T05:23:21.379Z,24.17
2023-01-04T05:26:00.445Z,23.33
2023-01-04T05:28:27.900Z,24.58
2023-01-04T05:30:55.839Z,22.10
2023-01-04T05:33:31.501Z,28.42
2023-01-04T05:36:01.536Z,24.55
2023-01-04T05:38:28.639Z,28.02
2023-01-04T05:40:56.401Z,25.20
2023-01-04T05:43:24.365Z,25.13
2023-01-04T05:45:54.190Z,22.60
2023-01-04T05:48:23.759Z,24.90
2023-01-04T05:50:50.773Z,23.27
2023-01-04T05:53:18.335Z,24.40
2023-01-04T05:55:47.513Z,27.63
2023-01-04T05:58:15.000Z,22.67
2023-01-04T06:00:41.919Z,25.77
2023-01-04T06:03:08.841Z,22.63
2023-01-04T06:05:35.882Z,26.52
2023-01-04T06:08:03.070Z,22.05
2023-01-04T06:10:30.121Z,23.05
2023-01-04T06:12:57.106Z,25.08
2023-01-04T06:15:24.342Z,26.05
2023-01-04T06:17:51.322Z,24.33
2023-01-04T06:20:18.428Z,24.13
2023-01-04T06:22:45.428Z,22.90
2023-01-04T06:25:12.475Z,23.23
2023-01-04T06:27:40.776Z,22.33
2023-01-04T06:30:08.625Z,24.90
2023-01-04T06:32:35.766Z,20.92
2023-01-04T06:35:02.873Z,24.65
2023-01-04T06:37:30.003Z,21.60
2023-01-04T06:39:56.834Z,20.75
2023-01-04T06:42:42.485Z,25.20
2023-01-04T06:45:10.052Z,22.80
2023-01-04T06:47:37.075Z,24.48
2023-01-04T06:50:05.136Z,22.77
2023-01-04T06:52:32.155Z,24.55
2023-01-04T06:54:59.177Z,24.33
2023-01-04T06:57:26.179Z,24.42
2023-01-04T06:59:53.263Z,23.88
2023-01-04T07:02:20.670Z,24.15
2023-01-04T07:04:47.997Z,21.00
2023-01-04T07:07:14.933Z,26.95
2023-01-04T07:09:41.796Z,19.77
2023-01-04T07:12:08.742Z,21.73
2023-01-04T07:14:35.897Z,26.15
2023-01-04T07:17:02.860Z,22.55
2023-01-04T07:19:29.755Z,22.65
2023-01-04T07:21:58.806Z,20.13
2023-01-04T07:24:30.018Z,21.92
2023-01-04T07:27:00.304Z,23.23
2023-01-04T07:29:28.067Z,20.70
2023-01-04T07:31:55.713Z,22.27
2023-01-04T07:34:25.321Z,24.40
2023-01-04T07:36:52.912Z,24.20
2023-01-04T07:39:21.514Z,25.25
2023-01-04T07:41:49.744Z,21.38
2023-01-04T07:44:21.566Z,22.92
2023-01-04T07:46:48.659Z,21.10
2023-01-04T07:49:18.685Z,23.60
2023-01-04T07:51:47.981Z,23.90
2023-01-04T07:54:16.632Z,21.60
2023-01-04T07:56:44.648Z,24.42
2023-01-04T07:59:13.505Z,24.85
2023-01-04T08:01:40.858Z,24.48
2023-01-04T08:04:10.098Z,23.05
2023-01-04T08:06:38.176Z,23.60
2023-01-04T08:09:06.968Z,23.25
2023-01-04T08:11:34.870Z,23.48
2023-01-04T08:14:02.058Z,23.20
2023-01-04T08:16:39.020Z,20.42
2023-01-04T08:19:24.839Z,24.10
2023-01-04T08:21:51.970Z,21.35
2023-01-04T08:24:21.195Z,22.92
2023-01-04T08:26:48.238Z,20.63
2023-01-04T08:29:15.639Z,21.10
2023-01-04T08:31:42.783Z,24.45
2023-01-04T08:34:10.824Z,20.83
2023-01-04T08:36:50.849Z,22.08
2023-01-04T08:39:18.104Z,18.98
2023-01-04T08:42:04.199Z,21.92
2023-01-04T08:44:38.428Z,21.80
2023-01-04T08:47:05.840Z,24.17
2023-01-04T09:06:09.162Z,19.83
2023-01-04T09:08:38.641Z,23.08
2023-01-04T09:11:14.467Z,24.73
2023-01-04T09:13:42.328Z,21.17
2023-01-04T09:16:12.218Z,21.75
2023-01-04T09:18:39.517Z,23.15
2023-01-04T09:21:08.853Z,24.00
2023-01-04T09:26:09.791Z,22.67
2023-01-04T09:28:37.577Z,23.45
2023-01-04T09:31:16.919Z,22.83
2023-01-04T09:34:13.430Z,22.17
2023-01-04T09:36:32.621Z,24.13
2023-01-04T09:38:59.681Z,21.63
2023-01-04T09:41:34.746Z,20.20
2023-01-04T09:44:10.630Z,21.48
2023-01-04T09:46:43.534Z,19.77
2023-01-04T09:49:31.656Z,19.80
2023-01-04T09:52:10.389Z,24.25
2023-01-04T09:54:56.171Z,21.15
2023-01-04T09:57:30.193Z,20.17
2023-01-04T10:00:25.175Z,23.30
2023-01-04T10:03:12.396Z,19.65
2023-01-04T10:05:40.606Z,18.27
2023-01-04T10:08:15.362Z,18.85
2023-01-04T10:11:03.574Z,22.42
2023-01-04T10:13:58.586Z,21.63
2023-01-04T10:17:12.635Z,21.27
2023-01-04T10:22:41.978Z,18.67
2023-01-04T10:25:14.667Z,18.88
2023-01-04T10:27:53.685Z,20.40
2023-01-04T10:30:26.259Z,20.45
2023-01-04T10:32:59.351Z,21.38
2023-01-04T10:35:27.696Z,26.85
2023-01-04T10:37:59.516Z,22.55
2023-01-04T10:40:29.448Z,27.23
2023-01-04T10:43:30.355Z,24.48
2023-01-04T10:46:45.231Z,21.42
2023-01-04T10:49:38.597Z,22.00
2023-01-04T10:52:17.834Z,21.83
2023-01-04T10:54:52.429Z,23.00
2023-01-04T10:57:38.725Z,22.80
2023-01-04T11:00:23.551Z,23.33
2023-01-04T11:03:02.267Z,19.17
2023-01-04T11:05:48.510Z,19.23
2023-01-04T11:08:26.910Z,20.88
2023-01-04T11:11:04.503Z,21.27
2023-01-04T11:13:31.655Z,21.20
2023-01-04T11:16:01.495Z,22.38
2023-01-04T11:18:29.131Z,19.33
2023-01-04T11:20:55.928Z,19.35
2023-01-04T11:23:23.029Z,17.67
2023-01-04T11:25:56.678Z,19.88
2023-01-04T11:28:33.262Z,20.50
2023-01-04T11:31:30.550Z,22.02
2023-01-04T11:34:03.182Z,19.55
2023-01-04T11:36:41.081Z,20.17
2023-01-04T11:39:18.123Z,19.52
2023-01-04T11:42:03.281Z,24.65
2023-01-04T11:44:33.000Z,24.90
2023-01-04T11:47:24.298Z,20.98
2023-01-04T11:49:52.764Z,21.52
2023-01-04T11:52:37.788Z,20.20
2023-01-04T11:55:17.269Z,21.55
2023-01-04T11:57:44.926Z,18.63
2023-01-04T12:00:16.166Z,24.23
2023-01-04T12:03:00.563Z,23.00
2023-01-04T12:05:31.863Z,24.42
2023-01-04T12:07:59.672Z,23.70
2023-01-04T12:10:28.437Z,19.88
2023-01-04T12:12:58.920Z,20.60
2023-01-04T12:15:28.699Z,23.13
2023-01-04T12:18:03.088Z,21.85
2023-01-04T12:20:30.289Z,19.67
2023-01-04T12:22:57.146Z,20.52
2023-01-04T12:25:46.678Z,20.08
2023-01-04T12:28:34.848Z,20.65
2023-01-04T12:31:20.956Z,17.02
2023-01-04T12:34:00.701Z,17.77
2023-01-04T12:36:39.771Z,19.40
2023-01-04T12:39:13.420Z,21.33
2023-01-04T12:41:40.365Z,19.80
2023-01-04T12:44:47.757Z,17.13
2023-01-04T12:47:36.460Z,20.13
2023-01-04T12:50:08.172Z,17.85
2023-01-04T12:53:01.925Z,17.40
2023-01-04T12:55:32.225Z,16.08
2023-01-04T12:58:51.154Z,19.30
2023-01-04T13:01:25.484Z,16.13
2023-01-04T13:04:05.204Z,18.02
2023-01-04T13:06:42.721Z,21.83
2023-01-04T13:09:24.227Z,16.83
2023-01-04T13:12:05.931Z,20.02
2023-01-04T13:14:58.648Z,17.23
2023-01-04T13:17:27.398Z,19.27
2023-01-04T13:19:54.792Z,20.63
2023-01-04T13:22:30.360Z,23.85
2023-01-04T13:25:01.728Z,19.35
2023-01-04T13:27:29.704Z,20.40
2023-01-04T13:29:56.591Z,20.73
2023-01-04T13:32:24.808Z,21.23
2023-01-04T13:34:53.354Z,22.67
2023-01-04T13:37:26.924Z,21.20
2023-01-04T13:40:15.301Z,22.15
2023-01-04T13:42:46.968Z,23.20
2023-01-04T13:45:19.596Z,20.20
2023-01-04T13:47:51.527Z,23.02
2023-01-04T13:50:37.895Z,20.70
2023-01-04T13:53:08.127Z,21.95
2023-01-04T13:55:38.231Z,20.88
2023-01-04T13:58:15.768Z,22.10
2023-01-04T14:00:56.082Z,18.40
2023-01-04T14:03:40.182Z,21.65
2023-01-04T14:06:10.278Z,23.13
2023-01-04T14:08:55.577Z,20.33
2023-01-04T14:11:49.441Z,18.25
2023-01-04T14:14:51.821Z,23.55
2023-01-04T14:17:20.570Z,22.48
2023-01-04T14:20:20.124Z,20.48
2023-01-04T14:22:47.303Z,22.77
2023-01-04T14:25:37.075Z,20.92
2023-01-04T14:28:22.624Z,22.70
2023-01-04T14:30:52.477Z,22.25
2023-01-04T14:33:26.215Z,21.17
2023-01-04T14:36:11.477Z,22.75
2023-01-04T14:38:59.480Z,24.48
2023-01-04T14:41:42.039Z,22.60
2023-01-04T14:44:11.174Z,24.13
2023-01-04T14:46:38.961Z,24.27
2023-01-04T14:49:07.128Z,21.55
2023-01-04T14:51:34.342Z,24.20
2023-01-04T14:54:01.325Z,25.58
2023-01-04T14:56:28.457Z,26.73
2023-01-04T14:58:55.608Z,24.70
2023-01-04T15:01:22.772Z,24.40
2023-01-04T15:03:51.331Z,27.10
2023-01-04T15:06:18.856Z,30.50
2023-01-04T15:08:46.034Z,25.65
2023-01-04T15:11:14.026Z,34.83
2023-01-04T15:13:41.694Z,27.90
2023-01-04T15:16:12.341Z,26.55
2023-01-04T15:18:41.032Z,29.58
2023-01-04T15:21:09.605Z,22.87
2023-01-04T15:23:37.334Z,25.63
2023-01-04T15:26:08.804Z,28.77
2023-01-04T15:28:36.214Z,23.88
2023-01-04T15:31:11.488Z,25.58
2023-01-04T15:33:38.961Z,28.77
2023-01-04T15:36:09.111Z,28.27
2023-01-04T15:38:36.292Z,28.13
2023-01-04T15:41:05.838Z,27.45
2023-01-04T15:43:37.525Z,27.52
2023-01-04T15:46:07.740Z,29.85
2023-01-04T15:48:37.932Z,33.70
2023-01-04T15:51:09.862Z,29.15
2023-01-04T15:53:37.162Z,30.38
2023-01-04T15:56:07.479Z,29.67
2023-01-04T15:58:37.902Z,31.50
2023-01-04T16:01:10.470Z,30.38
2023-01-04T16:03:38.035Z,28.02
2023-01-04T16:06:10.679Z,29.50
2023-01-04T16:08:37.860Z,29.40
2023-01-04T16:11:20.597Z,29.38
2023-01-04T16:13:49.485Z,27.00
2023-01-04T16:16:17.296Z,32.22
2023-01-04T16:18:52.006Z,31.10
2023-01-04T16:21:27.474Z,34.25
2023-01-04T16:24:07.037Z,30.10
2023-01-04T16:26:40.138Z,33.58
2023-01-04T16:29:12.142Z,31.98
2023-01-04T16:31:40.245Z,34.25
2023-01-04T16:34:07.277Z,32.83
2023-01-04T16:36:34.348Z,32.72
2023-01-04T16:39:01.716Z,32.30
2023-01-04T16:41:28.671Z,32.88
2023-01-04T16:43:58.954Z,34.30
2023-01-04T16:46:34.852Z,31.63
2023-01-04T16:49:11.274Z,32.15
2023-01-04T16:51:40.182Z,34.80
2023-01-04T16:54:09.600Z,34.85
2023-01-04T16:59:04.270Z,32.80
2023-01-04T17:01:33.915Z,32.38
2023-01-04T17:06:31.905Z,34.53
2023-01-04T17:09:00.923Z,30.13
2023-01-04T17:14:18.254Z,32.47
2023-01-04T17:16:45.462Z,38.95
2023-01-04T17:19:12.442Z,38.40
2023-01-04T17:21:39.249Z,39.78
2023-01-04T17:24:06.761Z,34.60
2023-01-04T17:26:33.880Z,36.25
2023-01-04T17:29:02.374Z,33.25
2023-01-04T17:31:35.481Z,37.63
2023-01-04T17:34:03.421Z,37.22
2023-01-04T17:36:30.891Z,37.78
2023-01-04T17:39:01.608Z,37.30
2023-01-04T17:41:30.449Z,34.97
2023-01-04T17:44:00.422Z,31.23
2023-01-04T17:46:31.889Z,35.95
2023-01-04T17:49:25.536Z,35.55
2023-01-04T17:51:55.309Z,34.40
2023-01-04T17:54:23.069Z,34.97
2023-01-04T17:56:50.047Z,35.00
2023-01-04T17:59:17.040Z,34.47
2023-01-04T18:01:44.072Z,30.58
2023-01-04T18:04:11.426Z,34.83
2023-01-04T18:06:39.737Z,38.33
2023-01-04T18:09:08.074Z,32.53
2023-01-04T18:11:35.827Z,36.75
2023-01-04T18:14:07.779Z,42.33
2023-01-04T18:16:56.908Z,34.53
2023-01-04T18:19:30.727Z,41.45
2023-01-04T18:21:58.779Z,36.90
2023-01-04T18:24:41.979Z,34.00
2023-01-04T18:27:29.003Z,32.10
2023-01-04T18:29:56.689Z,36.70
2023-01-04T18:32:25.382Z,39.03
2023-01-04T18:34:52.335Z,37.60
2023-01-04T18:37:19.535Z,39.72
2023-01-04T18:39:48.084Z,33.92
2023-01-04T18:42:21.448Z,32.80
2023-01-04T18:44:49.642Z,35.05
2023-01-04T18:49:00.490Z,35.75
2023-01-04T18:52:09.673Z,33.17
2023-01-04T18:54:36.984Z,33.50
2023-01-04T18:57:05.171Z,35.15
2023-01-04T19:02:17.216Z,31.02
2023-01-04T19:04:44.575Z,35.72
2023-01-04T19:07:11.500Z,34.60
2023-01-04T19:09:39.525Z,34.35
2023-01-04T19:12:07.966Z,33.58
2023-01-04T19:14:37.361Z,37.90
2023-01-04T19:17:05.119Z,38.53
2023-01-04T19:19:32.125Z,34.97
2023-01-04T19:21:59.168Z,38.83
2023-01-04T19:24:27.021Z,38.05
2023-01-04T19:26:55.155Z,37.35
2023-01-04T19:29:22.779Z,42.00
2023-01-04T19:36:58.586Z,40.30
2023-01-04T19:39:25.409Z,37.20
2023-01-04T19:41:52.182Z,35.60
2023-01-04T19:44:25.589Z,33.80
2023-01-04T19:46:52.673Z,37.78
2023-01-04T19:49:19.659Z,41.63
2023-01-04T19:51:48.978Z,39.75
2023-01-04T19:54:21.700Z,40.63
2023-01-04T19:56:52.281Z,35.60
2023-01-04T19:59:19.341Z,33.22
2023-01-04T20:01:46.426Z,36.55
2023-01-04T20:04:14.158Z,41.85
2023-01-04T20:06:41.477Z,38.95
2023-01-04T20:09:08.539Z,41.30
2023-01-04T20:11:36.283Z,40.65
2023-01-04T20:14:03.279Z,37.78
2023-01-04T20:16:30.421Z,40.65
2023-01-04T20:18:58.373Z,41.15
2023-01-04T20:21:25.459Z,39.58
2023-01-04T20:23:52.300Z,39.88
2023-01-04T20:26:19.583Z,41.78
2023-01-04T20:28:46.530Z,45.63
2023-01-04T20:31:16.495Z,40.33
2023-01-04T20:33:43.937Z,37.30
2023-01-04T20:36:17.098Z,38.65
2023-01-04T20:38:45.838Z,41.58
2023-01-04T20:41:18.386Z,35.95
2023-01-04T20:43:46.574Z,40.47
2023-01-04T20:46:19.220Z,36.67
2023-01-04T20:48:46.996Z,35.90
2023-01-04T20:51:19.546Z,34.42
2023-01-04T20:53:46.564Z,34.97
2023-01-04T20:56:18.983Z,37.25
2023-01-04T20:58:47.458Z,38.15
2023-01-04T21:01:16.597Z,39.95
2023-01-04T21:03:44.329Z,35.13
2023-01-04T21:06:14.351Z,37.10
2023-01-04T21:08:42.817Z,40.67
2023-01-04T21:11:10.379Z,39.90
2023-01-04T21:13:37.224Z,33.95
2023-01-04T21:16:05.348Z,34.97
2023-01-04T21:18:32.966Z,36.33
2023-01-04T21:21:05.466Z,37.80
2023-01-04T21:23:32.375Z,31.15
2023-01-04T21:25:59.290Z,35.22
2023-01-04T21:28:27.325Z,33.92
2023-01-04T21:30:54.196Z,35.30
2023-01-04T21:33:21.190Z,36.03
2023-01-04T21:35:48.135Z,35.50
2023-01-04T21:38:15.090Z,37.40
2023-01-04T21:40:42.820Z,35.67
2023-01-04T21:43:16.413Z,33.50
2023-01-04T21:45:43.980Z,33.22
2023-01-04T21:48:10.998Z,32.55
2023-01-04T21:50:37.943Z,34.15
2023-01-04T21:53:04.962Z,32.58
2023-01-04T21:55:34.841Z,28.55
2023-01-04T21:58:03.170Z,30.83
2023-01-04T22:00:30.225Z,32.92
2023-01-04T22:02:57.079Z,28.27
2023-01-04T22:05:24.031Z,31.15
2023-01-04T22:07:51.197Z,31.25
2023-01-04T22:10:18.201Z,32.03
2023-01-04T22:12:47.949Z,28.45
2023-01-04T22:15:15.072Z,28.40
2023-01-04T22:17:41.914Z,31.67
2023-01-04T22:20:09.335Z,32.78
2023-01-04T22:22:36.218Z,28.73
2023-01-04T22:25:03.232Z,29.98
2023-01-04T22:27:30.104Z,32.38
2023-01-04T22:29:57.113Z,31.60
2023-01-04T22:32:24.035Z,30.60
2023-01-04T22:34:50.948Z,30.67
2023-01-04T22:37:17.924Z,30.73
2023-01-04T22:39:44.722Z,30.67
2023-01-04T22:42:11.797Z,28.35
2023-01-04T22:44:38.684Z,30.70
2023-01-04T22:47:06.048Z,31.90
2023-01-04T22:49:33.417Z,33.63
2023-01-04T22:52:00.361Z,40.83
2023-01-04T22:54:27.452Z,35.08
2023-01-04T22:56:54.308Z,37.95
2023-01-04T22:59:23.144Z,37.25
2023-01-04T23:01:50.087Z,39.63
2023-01-04T23:04:17.703Z,33.17
2023-01-04T23:06:45.671Z,36.25
2023-01-04T23:09:15.819Z,36.67
2023-01-04T23:11:43.359Z,37.13
2023-01-04T23:14:15.128Z,38.38
2023-01-04T23:16:42.690Z,37.03
2023-01-04T23:19:11.603Z,38.67
2023-01-04T23:21:38.748Z,36.17
2023-01-04T23:24:06.248Z,35.55
2023-01-04T23:26:34.250Z,37.40
2023-01-04T23:29:01.939Z,35.05
2023-01-04T23:31:31.665Z,35.75
2023-01-04T23:34:01.583Z,34.78
2023-01-04T23:36:37.205Z,36.20
2023-01-04T23:39:07.488Z,34.90
2023-01-04T23:41:45.191Z,33.55
2023-01-04T23:44:29.107Z,37.17
2023-01-04T23:47:01.497Z,36.03
2023-01-04T23:49:31.611Z,31.50
2023-01-04T23:51:59.341Z,36.67
2023-01-04T23:54:26.466Z,32.97
2023-01-04T23:56:54.299Z,35.70
2023-01-04T23:59:22.492Z,35.95
